Airfield :
LOGIN :

Register | Disclaimer

   EN    FR    IT 

 










Legend :    VFR   Marginal VFR   IFR   Intensive IFR   Very Intensive IFR
Visi :
Ceiling :
>= 8 km
>= 3000ft
5 to 8 km
1000 to 3000 ft
1500m to 5 km
500 to 1000 ft
800 to 1500m
200 to 500 ft
< 800m
< 200 ft
Symbols :   Thunderstorms  Fog  Heavy snow  Heavy precipitations  Wind > 20 kt
SIGMETs :     Misc.  Thunderstorms  Icing  Turbulence  Mountain Waves  Volcanic Ashes






- Airport Elevation : 184 ft
- IATA code : BRU


EBBR - Bruxelles

CURRENT METAR :
  • 190250Z 21016KT 9999 -RA BKN012 05/03 Q1014 TEMPO 21016G28KT BKN008

EXPIRED METARs :
  • 190220Z 21017KT 9999 SCT016 BKN032 05/02 Q1014 TEMPO 21016G28KT BKN012
  • 190150Z 21016KT 9999 FEW016 SCT032 05/02 Q1015 TEMPO 21016G28KT BKN012
  • 190120Z 21017KT 9999 FEW035 04/01 Q1015 TEMPO 21016G28KT 4000 RA SCT008 BKN012
  • 190050Z 22013KT CAVOK 04/01 Q1016 TEMPO 21016G28KT 4000 RA SCT008 BKN012
  • 190020Z 22012KT CAVOK 04/01 Q1017 NOSIG

TAF TAF EBBR
Valid from the 19 at 00:00 until the 20 at 06:00 UTC


182314Z 1900/2006 21016G28KT 9999 SCT015 BKN030
TEMPO 1902/1910 4000 RA -RADZ SCT008 BKN012
TEMPO 1910/1918 3500 DZRA -RA BKN006
PROB30
TEMPO 1922/2006 4500 -RA -RADZ BKN008



MET'MAP, your aeronautical weather chart ! - Copyright ORBIFLY December 2007 - Disclaimer

ORBIFLY MET'MAP TEAM :

Programming & Development : Alexandra Zaïnal
Concept & original design : Baudouin d'Aumeries
Assistance for programming : Marc-Olivier Méhu
Technical & hardware support : Manuel Goepfert

Contact : metmap@orbifly.com




SOURCES & CREDITS :

   NOAA